createdAt,value
2018-07-12T06:25:56.990Z,960.56
2018-07-12T06:26:57.196Z,960.58
2018-07-12T06:27:56.875Z,960.54
2018-07-12T06:28:56.594Z,960.58
2018-07-12T06:29:57.122Z,960.55
2018-07-12T06:30:56.442Z,960.61
2018-07-12T06:31:56.985Z,960.63
2018-07-12T06:32:56.556Z,960.59
2018-07-12T06:33:55.762Z,960.59
2018-07-12T06:34:56.393Z,960.60
2018-07-12T06:35:56.017Z,960.57
2018-07-12T06:36:56.052Z,960.64
2018-07-12T06:37:56.154Z,960.61
2018-07-12T06:38:55.267Z,960.59
2018-07-12T06:39:56.012Z,960.59
2018-07-12T06:40:55.989Z,960.58
2018-07-12T06:41:56.244Z,960.59
2018-07-12T06:42:55.730Z,960.60
2018-07-12T06:43:56.293Z,960.61
2018-07-12T06:44:56.380Z,960.61
2018-07-12T06:45:55.833Z,960.62
2018-07-12T06:46:55.993Z,960.64
2018-07-12T06:47:55.357Z,960.63
2018-07-12T06:48:55.472Z,960.67
2018-07-12T06:49:55.560Z,960.68
2018-07-12T06:50:55.269Z,960.70
2018-07-12T06:51:55.355Z,960.69
2018-07-12T06:52:55.230Z,960.69
2018-07-12T06:53:55.234Z,960.71
2018-07-12T06:54:54.997Z,960.68
2018-07-12T06:55:56.293Z,960.70
2018-07-12T06:56:55.137Z,960.69
2018-07-12T06:58:30.071Z,960.72
2018-07-12T06:58:55.532Z,960.66
2018-07-12T06:59:54.674Z,960.68
2018-07-12T07:00:54.973Z,960.70
2018-07-12T07:01:55.033Z,960.72
2018-07-12T07:02:54.609Z,960.71
2018-07-12T07:03:54.734Z,960.74
2018-07-12T07:04:55.358Z,960.75
2018-07-12T07:05:54.659Z,960.76
2018-07-12T07:06:54.719Z,960.78
2018-07-12T07:07:54.697Z,960.75
2018-07-12T07:08:54.398Z,960.78
2018-07-12T07:09:54.235Z,960.73
2018-07-12T07:10:54.274Z,960.76
2018-07-12T07:11:54.939Z,960.80
2018-07-12T07:12:54.075Z,960.76
2018-07-12T07:13:54.079Z,960.77
2018-07-12T07:14:54.096Z,960.77
2018-07-12T07:15:54.038Z,960.76
2018-07-12T07:16:54.472Z,960.77
2018-07-12T07:17:54.093Z,960.78
2018-07-12T07:18:54.060Z,960.76
2018-07-12T07:19:55.122Z,960.73
2018-07-12T07:20:53.800Z,960.75
2018-07-12T07:21:54.073Z,960.78
2018-07-12T07:22:54.219Z,960.77
2018-07-12T07:23:53.680Z,960.76
2018-07-12T07:24:53.786Z,960.76
2018-07-12T07:25:53.637Z,960.78
2018-07-12T07:26:53.498Z,960.81
2018-07-12T07:27:53.537Z,960.77
2018-07-12T07:28:53.313Z,960.81
2018-07-12T07:33:35.739Z,960.82
2018-07-12T07:34:35.275Z,960.81
2018-07-12T07:42:58.312Z,960.90
2018-07-12T08:14:52.030Z,960.93
2018-07-12T08:15:52.358Z,960.94
2018-07-12T08:23:03.782Z,960.95
2018-07-12T08:24:00.252Z,960.94
2018-07-12T08:26:11.996Z,960.90
2018-07-12T08:27:19.901Z,960.92
2018-07-12T08:35:55.779Z,960.93
2018-07-12T08:36:55.639Z,960.88
2018-07-12T08:37:55.859Z,960.89
2018-07-12T08:38:55.695Z,960.84
2018-07-12T08:39:55.235Z,960.84
2018-07-12T08:40:55.593Z,960.90
2018-07-12T08:41:55.577Z,960.91
2018-07-12T08:42:55.436Z,960.91
2018-07-12T08:43:55.119Z,960.90
2018-07-12T08:44:55.049Z,960.96
2018-07-12T08:45:55.697Z,960.91
2018-07-12T08:46:55.135Z,961.00
2018-07-12T08:47:55.853Z,960.98
2018-07-12T08:48:55.558Z,960.99
2018-07-12T08:49:55.173Z,960.98
2018-07-12T08:50:54.908Z,960.99
2018-07-12T08:51:55.096Z,960.96
2018-07-12T08:52:55.355Z,961.04
2018-07-12T08:53:55.549Z,960.91
2018-07-12T08:54:54.933Z,960.89
2018-07-12T08:55:54.849Z,960.94
2018-07-12T08:56:54.656Z,960.91
2018-07-12T08:57:55.517Z,960.93
2018-07-12T08:58:54.875Z,960.97
2018-07-12T08:59:55.059Z,960.97
2018-07-12T09:00:54.594Z,960.98
2018-07-12T09:01:54.404Z,960.99
2018-07-12T09:02:54.797Z,960.97
2018-07-12T09:03:54.173Z,960.89
2018-07-12T09:04:54.056Z,960.89
2018-07-12T09:05:54.173Z,960.86
2018-07-12T09:06:54.189Z,960.88
2018-07-12T09:07:54.410Z,960.86
2018-07-12T09:08:54.014Z,960.82
2018-07-12T09:09:53.712Z,960.86
2018-07-12T09:10:53.671Z,960.87
2018-07-12T09:11:53.877Z,960.87
2018-07-12T09:12:54.284Z,960.83
2018-07-12T09:13:53.936Z,960.84
2018-07-12T09:14:53.555Z,960.84
2018-07-12T09:15:53.476Z,960.90
2018-07-12T09:16:53.779Z,960.88
2018-07-12T09:17:53.616Z,960.88
2018-07-12T09:18:53.212Z,960.89
2018-07-12T09:19:53.259Z,960.89
2018-07-12T09:20:54.336Z,960.89
2018-07-12T09:21:54.073Z,960.86
2018-07-12T09:22:53.331Z,960.94
2018-07-12T09:23:52.961Z,960.83
2018-07-12T09:24:53.197Z,960.83
2018-07-12T09:25:52.688Z,960.86
2018-07-12T09:26:52.658Z,960.91
2018-07-12T09:27:52.853Z,960.88
2018-07-12T09:28:52.550Z,960.88
2018-07-12T09:29:53.240Z,960.91
2018-07-12T09:30:52.466Z,960.90
2018-07-12T09:31:52.593Z,960.94
2018-07-12T09:32:52.631Z,960.95
2018-07-12T09:33:52.114Z,960.92
2018-07-12T09:34:52.100Z,960.93
2018-07-12T09:35:52.310Z,960.95
2018-07-12T09:36:53.132Z,960.98
2018-07-12T09:37:52.075Z,960.96
2018-07-12T09:38:52.253Z,961.01
2018-07-12T09:39:51.858Z,961.01
2018-07-12T09:40:52.473Z,960.98
2018-07-12T09:41:51.792Z,960.93
2018-07-12T09:42:51.619Z,960.94
2018-07-12T09:43:53.572Z,960.99
2018-07-12T09:44:51.830Z,960.99
2018-07-12T09:45:51.490Z,961.04
2018-07-12T09:46:51.522Z,961.00
2018-07-12T09:47:51.494Z,961.03
2018-07-12T09:48:51.856Z,961.02
2018-07-12T09:49:51.277Z,961.01
2018-07-12T09:50:51.555Z,961.06
2018-07-12T09:51:51.246Z,961.04
2018-07-12T09:52:51.553Z,961.05
2018-07-12T09:53:53.592Z,961.07
2018-07-12T09:54:51.191Z,961.03
2018-07-12T09:55:51.599Z,961.10
2018-07-12T09:56:50.892Z,961.04
2018-07-12T09:57:51.491Z,961.11
2018-07-12T09:58:51.181Z,961.09
2018-07-12T09:59:50.915Z,961.10
2018-07-12T10:00:50.678Z,961.08
2018-07-12T10:01:51.156Z,961.09
2018-07-12T10:02:50.597Z,961.14
2018-07-12T10:03:50.857Z,961.11
2018-07-12T10:04:50.474Z,961.12
2018-07-12T10:05:51.030Z,961.15
2018-07-12T10:06:50.442Z,961.16
2018-07-12T10:07:50.332Z,961.18
2018-07-12T10:08:50.675Z,961.16
2018-07-12T10:09:50.261Z,961.17
2018-07-12T10:10:50.315Z,961.19
2018-07-12T10:11:50.154Z,961.25
2018-07-12T10:12:50.514Z,961.23
2018-07-12T10:13:50.211Z,961.23
2018-07-12T10:14:50.234Z,961.26
2018-07-12T10:15:50.095Z,961.28
2018-07-12T10:16:50.891Z,961.29
2018-07-12T10:17:49.930Z,961.30
2018-07-12T10:18:51.281Z,961.30
2018-07-12T10:19:50.020Z,961.28
2018-07-12T10:20:50.572Z,961.24
2018-07-12T10:21:49.610Z,961.26
2018-07-12T10:22:49.570Z,961.29
2018-07-12T10:23:49.778Z,961.28
2018-07-12T10:24:50.558Z,961.32
2018-07-12T10:25:49.658Z,961.29
2018-07-12T10:26:49.470Z,961.30
2018-07-12T10:27:49.491Z,961.26
2018-07-12T10:28:49.453Z,961.32
2018-07-12T10:29:49.157Z,961.30
2018-07-12T10:30:50.322Z,961.29
2018-07-12T10:31:49.974Z,961.36
2018-07-12T10:32:49.958Z,961.33
2018-07-12T10:33:49.152Z,961.31
2018-07-12T10:34:50.198Z,961.35
2018-07-12T10:35:50.060Z,961.33
2018-07-12T10:36:49.352Z,961.37
2018-07-12T10:37:49.714Z,961.35
2018-07-12T10:38:49.517Z,961.29
2018-07-12T10:39:49.735Z,961.31
2018-07-12T10:40:49.493Z,961.30
2018-07-12T10:41:49.296Z,961.28
2018-07-12T10:42:48.578Z,961.25
2018-07-12T10:43:48.671Z,961.29
2018-07-12T10:44:49.092Z,961.32
2018-07-12T10:45:50.934Z,961.29
2018-07-12T10:46:48.791Z,961.28
2018-07-12T10:47:48.813Z,961.29
2018-07-12T10:48:48.758Z,961.24
2018-07-12T10:49:48.773Z,961.25
2018-07-12T10:50:49.074Z,961.26
2018-07-12T10:51:48.736Z,961.26
2018-07-12T10:52:48.738Z,961.22
2018-07-12T10:53:48.574Z,961.25
2018-07-12T10:54:48.732Z,961.23
2018-07-12T10:55:48.462Z,961.22
2018-07-12T10:56:49.292Z,961.26
2018-07-12T10:57:49.135Z,961.26
2018-07-12T10:58:48.165Z,961.28
2018-07-12T10:59:49.373Z,961.26
2018-07-12T11:00:47.972Z,961.29
2018-07-12T11:01:47.975Z,961.28
2018-07-12T11:02:47.856Z,961.29
2018-07-12T11:03:47.953Z,961.28
2018-07-12T11:04:48.652Z,961.29
2018-07-12T11:05:47.676Z,961.33
2018-07-12T11:06:47.654Z,961.32
2018-07-12T11:07:47.857Z,961.29
2018-07-12T11:08:47.518Z,961.29
2018-07-12T11:09:48.014Z,961.28
2018-07-12T11:10:47.619Z,961.29
2018-07-12T11:11:47.620Z,961.29
2018-07-12T11:12:47.137Z,961.27
2018-07-12T11:13:47.317Z,961.29
2018-07-12T11:14:47.039Z,961.29
2018-07-12T11:15:47.329Z,961.28
2018-07-12T11:16:46.858Z,961.22
2018-07-12T11:17:47.137Z,961.25
2018-07-12T11:18:47.497Z,961.21
2018-07-12T11:19:46.993Z,961.18
2018-07-12T11:20:46.911Z,961.23
2018-07-12T11:21:47.036Z,961.23
2018-07-12T11:22:46.513Z,961.20
2018-07-12T11:23:46.478Z,961.25
2018-07-12T11:24:46.814Z,961.23
2018-07-12T11:25:46.472Z,961.26
2018-07-12T11:26:46.272Z,961.23
2018-07-12T11:27:46.315Z,961.22
2018-07-12T11:28:46.017Z,961.24
2018-07-12T11:29:46.621Z,961.23
2018-07-12T11:30:45.959Z,961.14
2018-07-12T11:31:46.278Z,961.16
2018-07-12T11:32:45.833Z,961.16
2018-07-12T11:33:45.759Z,961.16
2018-07-12T11:34:46.016Z,961.17
2018-07-12T11:35:45.992Z,961.19
2018-07-12T11:36:45.849Z,961.17
2018-07-12T11:37:45.892Z,961.18
2018-07-12T11:38:45.292Z,961.16
2018-07-12T11:39:45.755Z,961.18
2018-07-12T11:40:45.434Z,961.11
2018-07-12T11:41:45.217Z,961.11
2018-07-12T11:42:44.977Z,961.10
2018-07-12T11:43:45.356Z,961.17
2018-07-12T11:44:45.257Z,961.19
2018-07-12T11:45:45.080Z,961.18
2018-07-12T11:46:44.815Z,961.12
2018-07-12T11:47:44.633Z,961.18
2018-07-12T11:48:44.536Z,961.13
2018-07-12T11:49:44.971Z,961.08
2018-07-12T11:50:44.621Z,961.07
2018-07-12T11:51:44.875Z,961.03
